createdAt,value
2018-07-28T22:00:06.964Z,19.1
2018-07-28T22:01:14.173Z,19.1
2018-07-28T22:02:21.384Z,19.1
2018-07-28T22:03:28.600Z,19
2018-07-28T22:04:35.814Z,19
2018-07-28T22:05:43.023Z,19
2018-07-28T22:06:49.954Z,19
2018-07-28T22:07:56.896Z,19
2018-07-28T22:09:04.108Z,19
2018-07-28T22:10:11.065Z,19
2018-07-28T22:11:18.277Z,19
2018-07-28T22:12:25.484Z,19
2018-07-28T22:13:32.695Z,19
2018-07-28T22:14:39.915Z,18.9
2018-07-28T22:15:47.122Z,18.9
2018-07-28T22:16:54.333Z,18.9
2018-07-28T22:18:01.549Z,18.9
2018-07-28T22:19:08.763Z,18.9
2018-07-28T22:20:15.978Z,18.9
2018-07-28T22:21:22.912Z,18.9
2018-07-28T22:22:30.130Z,18.9
2018-07-28T22:23:37.341Z,18.9
2018-07-28T22:24:44.556Z,18.9
2018-07-28T22:25:51.772Z,18.9
2018-07-28T22:26:58.986Z,18.9
2018-07-28T22:28:06.208Z,18.8
2018-07-28T22:29:13.155Z,18.8
2018-07-28T22:30:20.365Z,18.8
2018-07-28T22:31:27.573Z,18.8
2018-07-28T22:32:34.789Z,18.8
2018-07-28T22:33:42.002Z,18.8
2018-07-28T22:34:49.216Z,18.8
2018-07-28T22:35:56.426Z,18.8
2018-07-28T22:37:03.669Z,18.8
2018-07-28T22:38:10.335Z,18.8
2018-07-28T22:39:17.554Z,18.8
2018-07-28T22:40:24.766Z,18.7
2018-07-28T22:41:31.984Z,18.7
2018-07-28T22:42:39.198Z,18.7
2018-07-28T22:43:46.414Z,18.6
2018-07-28T22:44:53.625Z,18.6
2018-07-28T22:46:00.839Z,18.6
2018-07-28T22:47:08.051Z,18.6
2018-07-28T22:48:15.260Z,18.6
2018-07-28T22:49:22.473Z,18.6
2018-07-28T22:50:29.686Z,18.5
2018-07-28T22:51:36.901Z,18.5
2018-07-28T22:52:44.110Z,18.5
2018-07-28T22:53:51.326Z,18.4
2018-07-28T22:54:58.541Z,18.4
2018-07-28T22:56:05.481Z,18.4
2018-07-28T22:57:12.692Z,18.4
2018-07-28T22:58:19.902Z,18.4
2018-07-28T22:59:27.116Z,18.3
2018-07-28T23:00:34.051Z,18.3
2018-07-28T23:01:41.266Z,18.3
2018-07-28T23:02:48.481Z,18.3
2018-07-28T23:03:55.697Z,18.3
2018-07-28T23:05:02.911Z,18.3
2018-07-28T23:06:10.123Z,18.3
2018-07-28T23:07:17.337Z,18.2
2018-07-28T23:08:24.545Z,18.3
2018-07-28T23:09:31.756Z,18.3
2018-07-28T23:10:38.965Z,18.3
2018-07-28T23:11:46.201Z,18.3
2018-07-28T23:12:53.411Z,18.3
2018-07-28T23:14:00.621Z,18.3
2018-07-28T23:15:07.831Z,18.2
2018-07-28T23:16:14.770Z,18.2
2018-07-28T23:17:21.982Z,18.2
2018-07-28T23:18:29.191Z,18.2
2018-07-28T23:19:36.427Z,18.1
2018-07-28T23:20:43.639Z,18.1
2018-07-28T23:21:50.848Z,18.1
2018-07-28T23:22:57.791Z,18.1
2018-07-28T23:24:05.002Z,18.1
2018-07-28T23:25:12.245Z,18.1
2018-07-28T23:26:19.459Z,18
2018-07-28T23:27:26.396Z,18
2018-07-28T23:28:33.055Z,18.1
2018-07-28T23:29:40.272Z,18
2018-07-28T23:30:47.486Z,18
2018-07-28T23:31:54.152Z,18.1
2018-07-28T23:33:01.371Z,18
2018-07-28T23:34:08.583Z,18
2018-07-28T23:35:15.794Z,18
2018-07-28T23:36:22.731Z,18
2018-07-28T23:37:29.951Z,18
2018-07-28T23:38:37.178Z,18
2018-07-28T23:39:44.385Z,18
2018-07-28T23:40:51.600Z,18
2018-07-28T23:41:58.831Z,18
2018-07-28T23:43:06.047Z,18
2018-07-28T23:44:13.258Z,18
2018-07-28T23:45:20.473Z,18
2018-07-28T23:46:27.685Z,18
2018-07-28T23:47:34.898Z,17.9
2018-07-28T23:48:42.107Z,17.9
2018-07-28T23:49:49.315Z,17.9
2018-07-28T23:50:56.530Z,17.9
2018-07-28T23:52:03.740Z,17.9
2018-07-28T23:53:10.947Z,17.8
2018-07-28T23:54:18.157Z,17.8
2018-07-28T23:55:25.371Z,17.9
2018-07-28T23:56:32.583Z,17.8
2018-07-28T23:57:39.794Z,17.8
2018-07-28T23:58:47.003Z,17.9
2018-07-28T23:59:54.218Z,17.9
